Aviation Digital Data Service (ADDS)

Output produced by METARs form (1311 UTC 20 October 2021)
found at http://www.aviationweather.gov/metar/data/
 
METAR text: KEYW 201253Z 04007KT 10SM CLR 26/21 A3013 RMK AO2 SLP202 T02610211
Conditions at: KEYW (KEY WEST , FL, US) observed 1253 UTC 20 October 2021
Temperature: 26.1°C (79°F)
Dewpoint: 21.1°C (70°F) [RH = 74%]
Pressure (altimeter): 30.13 inches Hg (1020.4 mb)
[Sea-level pressure: 1020.2 mb]
Winds: from the NE (40 degrees) at 8 MPH (7 knots; 3.6 m/s)
Visibility: 10 or more miles (16+ km)
Ceiling: at least 12,000 feet AGL
Clouds: sky clear below 12,000 feet AGL
Weather: no significant weather observed at this time

Forecast for: KEYW (KEY WEST , FL, US)
Text: KEYW 201139Z 2012/2112 06010G18KT P6SM FEW035
Forecast period: 1200 UTC 20 October 2021 to 1200 UTC 21 October 2021
Forecast type: FROM: standard forecast or significant change
Winds: from the ENE (60 degrees) at 12 MPH (10 knots; 5.1 m/s)
gusting to 21 MPH (18 knots; 9.3 m/s)
Visibility: 6 or more miles (10+ km)
Ceiling: at least 12,000 feet AGL
Clouds: few clouds at 3500 feet AGL
Weather: no significant weather forecast for this period